createdAt,value
2022-09-01T00:03:18.670Z,22.9
2022-09-01T00:08:20.421Z,23
2022-09-01T00:13:22.240Z,23
2022-09-01T00:18:23.817Z,23
2022-09-01T00:23:25.390Z,23.1
2022-09-01T00:28:28.764Z,23.1
2022-09-01T00:33:32.000Z,23.1
2022-09-01T00:38:33.589Z,23.1
2022-09-01T00:43:35.160Z,23.1
2022-09-01T00:48:36.777Z,23.1
2022-09-01T00:53:39.719Z,23.1
2022-09-01T00:58:41.558Z,23.1
2022-09-01T01:03:43.140Z,23.2
2022-09-01T01:08:43.947Z,23.2
2022-09-01T01:13:45.562Z,23.2
2022-09-01T01:18:47.173Z,23.3
2022-09-01T01:23:48.808Z,23.3
2022-09-01T01:28:50.416Z,23.3
2022-09-01T01:33:52.038Z,23.3
2022-09-01T01:38:53.632Z,23.3
2022-09-01T01:43:55.242Z,23.3
2022-09-01T01:48:56.863Z,23.3
2022-09-01T01:53:58.466Z,23.3
2022-09-01T01:59:00.092Z,23.3
2022-09-01T02:04:01.730Z,23.4
2022-09-01T02:09:03.348Z,23.4
2022-09-01T02:14:04.950Z,23.4
2022-09-01T02:19:06.541Z,23.4
2022-09-01T02:24:08.529Z,23.4
2022-09-01T02:29:10.289Z,23.4
2022-09-01T02:34:11.935Z,23.4
2022-09-01T02:39:13.590Z,23.5
2022-09-01T02:44:15.233Z,23.5
2022-09-01T02:49:16.875Z,23.5
2022-09-01T02:54:18.505Z,23.5
2022-09-01T02:59:20.139Z,23.6
2022-09-01T03:04:21.808Z,23.6
2022-09-01T03:09:23.476Z,23.6
2022-09-01T03:14:25.092Z,23.6
2022-09-01T03:19:26.736Z,23.6
2022-09-01T03:24:28.349Z,23.6
2022-09-01T03:29:29.986Z,23.6
2022-09-01T03:34:31.597Z,23.6
2022-09-01T03:39:33.227Z,23.6
2022-09-01T03:44:34.857Z,23.7
2022-09-01T03:49:36.488Z,23.7
2022-09-01T03:54:38.118Z,23.7
2022-09-01T03:59:39.713Z,23.7
2022-09-01T04:04:42.142Z,23.7
2022-09-01T04:09:43.733Z,23.7
2022-09-01T04:14:45.605Z,23.7
2022-09-01T04:19:47.240Z,23.7
2022-09-01T04:24:48.840Z,23.8
2022-09-01T04:29:50.448Z,23.8
2022-09-01T04:34:52.283Z,23.8
2022-09-01T04:39:56.405Z,23.8
2022-09-01T04:44:58.510Z,23.8
2022-09-01T04:50:00.158Z,23.8
2022-09-01T04:55:01.756Z,23.9
2022-09-01T05:00:03.386Z,23.9
2022-09-01T05:05:05.910Z,23.9
2022-09-01T05:10:07.516Z,23.9
2022-09-01T05:15:09.154Z,23.9
2022-09-01T05:20:10.780Z,23.9
2022-09-01T05:25:12.395Z,23.9
2022-09-01T05:30:14.048Z,23.9
2022-09-01T05:35:15.683Z,23.9
2022-09-01T05:40:17.361Z,24
2022-09-01T05:45:18.986Z,24
2022-09-01T05:50:20.645Z,24
2022-09-01T05:55:22.304Z,24
2022-09-01T06:00:23.956Z,24
2022-09-01T06:05:25.589Z,24.1
2022-09-01T06:10:26.629Z,24.1
2022-09-01T06:15:28.314Z,24.1
2022-09-01T06:20:29.931Z,24.1
2022-09-01T06:25:30.087Z,24.1
2022-09-01T06:30:31.698Z,24.1
2022-09-01T06:35:33.337Z,24.1
2022-09-01T06:40:35.393Z,24.1
2022-09-01T06:45:37.217Z,24.1
2022-09-01T06:56:10.814Z,24.2
2022-09-01T07:01:13.557Z,24.2
2022-09-01T07:17:25.840Z,24.2
2022-09-01T07:27:59.783Z,24.3
2022-09-01T07:39:47.209Z,24.3
2022-09-01T07:44:50.243Z,24.3
2022-09-01T07:50:12.147Z,24.3
2022-09-01T07:55:25.803Z,24.3
2022-09-01T08:00:30.210Z,24.3
2022-09-01T08:05:33.694Z,24.3
2022-09-01T08:10:36.804Z,24.3
2022-09-01T08:15:40.782Z,24.3
2022-09-01T08:20:43.185Z,24.3
2022-09-01T08:25:44.803Z,24.3
2022-09-01T08:30:49.145Z,24.4
2022-09-01T08:35:54.346Z,24.4
2022-09-01T08:40:57.261Z,24.4
2022-09-01T08:45:58.377Z,24.4
2022-09-01T08:51:00.067Z,24.4
2022-09-01T08:56:01.682Z,24.4
2022-09-01T09:01:03.395Z,24.4
2022-09-01T09:06:05.035Z,24.4
2022-09-01T09:11:06.644Z,24.4
2022-09-01T09:16:08.790Z,24.4
2022-09-01T09:21:10.652Z,24.4
2022-09-01T09:26:15.940Z,24.4
2022-09-01T09:31:19.391Z,24.4
2022-09-01T09:36:22.170Z,24.4
2022-09-01T09:41:27.568Z,24.5
2022-09-01T09:46:29.440Z,24.5
2022-09-01T09:51:31.112Z,24.5
2022-09-01T09:56:33.177Z,24.5
2022-09-01T10:01:35.088Z,24.5
2022-09-01T10:06:36.759Z,24.5
2022-09-01T10:11:41.005Z,24.6
2022-09-01T10:16:43.253Z,24.6
2022-09-01T10:21:47.546Z,24.6
2022-09-01T10:26:49.188Z,24.6
2022-09-01T10:31:59.408Z,24.6
2022-09-01T10:37:11.435Z,24.6
2022-09-01T10:42:13.252Z,24.6
2022-09-01T10:47:16.455Z,24.6
2022-09-01T10:52:18.133Z,24.6
2022-09-01T10:57:20.027Z,24.6
2022-09-01T11:02:23.808Z,24.6
2022-09-01T11:07:31.599Z,24.6
2022-09-01T11:12:52.313Z,24.6
2022-09-01T11:17:53.182Z,24.6
2022-09-01T11:22:54.836Z,24.6
2022-09-01T11:27:56.466Z,24.7
2022-09-01T11:32:58.110Z,24.7
2022-09-01T11:38:00.132Z,24.7
2022-09-01T11:43:03.979Z,24.7
2022-09-01T11:48:06.133Z,24.7
2022-09-01T11:53:07.794Z,24.7
2022-09-01T11:58:09.422Z,24.7
2022-09-01T12:03:11.120Z,24.7
2022-09-01T12:08:12.863Z,24.7
2022-09-01T12:13:14.532Z,24.7
2022-09-01T12:18:16.199Z,24.7
2022-09-01T12:23:17.898Z,24.7
2022-09-01T12:28:19.877Z,24.7
2022-09-01T12:33:24.762Z,26
2022-09-01T12:38:26.641Z,29.7
2022-09-01T12:43:27.944Z,32.3
2022-09-01T12:48:28.209Z,34.2
2022-09-01T12:53:30.742Z,35.9
2022-09-01T12:58:31.125Z,36.7
2022-09-01T13:03:31.478Z,36.9
2022-09-01T13:08:35.000Z,36.9
2022-09-01T13:13:35.400Z,36.9
2022-09-01T13:19:10.262Z,36.9
2022-09-01T13:24:11.338Z,36.9
2022-09-01T13:29:12.791Z,36.9
2022-09-01T13:34:21.643Z,36.9
2022-09-01T13:39:23.348Z,36.9
2022-09-01T13:44:23.696Z,36.8
2022-09-01T13:54:54.480Z,36.8
2022-09-01T13:59:55.064Z,36.8
2022-09-01T14:04:55.484Z,36.7
2022-09-01T14:09:55.957Z,36.7
2022-09-01T14:15:14.668Z,36.7
2022-09-01T14:20:16.651Z,36.7
2022-09-01T14:25:16.975Z,36.7
2022-09-01T14:30:17.315Z,36.7
2022-09-01T14:35:17.867Z,36.7
2022-09-01T14:40:18.505Z,36.7
2022-09-01T14:45:18.933Z,36.7
2022-09-01T14:50:20.120Z,36.6
2022-09-01T14:55:23.215Z,36.6
2022-09-01T15:00:23.567Z,36.6
2022-09-01T15:05:23.924Z,36.6
2022-09-01T15:10:24.998Z,36.6
2022-09-01T15:15:25.932Z,36.6
2022-09-01T15:20:26.309Z,36.5
2022-09-01T15:25:26.658Z,36.5
2022-09-01T15:30:27.067Z,36.5
2022-09-01T15:35:27.411Z,36.5
2022-09-01T15:40:27.819Z,36.4
2022-09-01T15:45:28.179Z,36.4
2022-09-01T15:50:28.527Z,36.4
2022-09-01T15:55:28.852Z,36.4
2022-09-01T16:00:30.339Z,36.4
2022-09-01T16:05:30.704Z,36.4
2022-09-01T16:10:32.363Z,36.4
2022-09-01T16:15:35.520Z,36.3
2022-09-01T16:20:35.884Z,36.3
2022-09-01T16:25:36.228Z,36.3
2022-09-01T16:30:36.552Z,36.2
2022-09-01T16:35:36.901Z,36.2
2022-09-01T16:40:37.534Z,36.3
2022-09-01T16:45:42.341Z,37.2
2022-09-01T16:50:43.250Z,38.7
2022-09-01T16:55:43.702Z,40.6
2022-09-01T17:00:44.194Z,41.9
2022-09-01T17:05:44.744Z,42.9
2022-09-01T17:10:45.288Z,43.7
2022-09-01T17:15:45.878Z,44.6
2022-09-01T17:20:53.075Z,45.3
2022-09-01T17:25:58.599Z,45.6
2022-09-01T17:30:59.224Z,45.6
2022-09-01T17:35:59.844Z,45.6
2022-09-01T17:41:00.448Z,45.6
2022-09-01T17:46:01.071Z,45.5
2022-09-01T17:51:02.020Z,45.5
2022-09-01T17:56:02.928Z,45.5
2022-09-01T18:01:03.563Z,45.4
2022-09-01T18:06:04.415Z,45.4
2022-09-01T18:11:04.980Z,45.4
2022-09-01T18:16:05.630Z,45.4
2022-09-01T18:21:06.471Z,45.4
2022-09-01T18:26:07.129Z,45.3
2022-09-01T18:31:10.619Z,45.2
2022-09-01T18:36:11.366Z,45.2
2022-09-01T18:41:12.897Z,45.1
2022-09-01T18:46:14.526Z,45.1
2022-09-01T18:51:15.252Z,45.1
2022-09-01T18:56:16.865Z,45.1
2022-09-01T19:01:17.836Z,45.1
2022-09-01T19:06:18.606Z,45
2022-09-01T19:11:19.329Z,45
2022-09-01T19:16:20.118Z,45
2022-09-01T19:21:20.856Z,44.9
2022-09-01T19:26:21.764Z,44.9
2022-09-01T19:31:22.450Z,44.9
2022-09-01T19:36:23.027Z,44.9
2022-09-01T19:41:23.624Z,44.8
2022-09-01T19:46:24.258Z,44.8
2022-09-01T19:51:24.944Z,44.8
2022-09-01T19:56:25.574Z,44.8
2022-09-01T20:01:28.220Z,44.5
2022-09-01T20:06:28.877Z,44.2
2022-09-01T20:11:29.463Z,44.1
2022-09-01T20:16:29.979Z,44.1
2022-09-01T20:21:30.532Z,44.1
2022-09-01T20:26:31.075Z,44.1
2022-09-01T20:31:31.607Z,44
2022-09-01T20:36:32.201Z,44
2022-09-01T20:41:37.379Z,43.9
2022-09-01T20:46:39.529Z,43.9
2022-09-01T20:51:40.172Z,43.9
2022-09-01T20:56:40.705Z,43.9
2022-09-01T21:01:41.302Z,43.8
2022-09-01T21:06:41.913Z,43.8
2022-09-01T21:11:42.491Z,43.7
2022-09-01T21:16:43.099Z,43.7
2022-09-01T21:21:43.705Z,43.7
2022-09-01T21:26:44.442Z,43.7
2022-09-01T21:31:44.971Z,43.6
2022-09-01T21:36:45.505Z,43.6
2022-09-01T21:41:46.074Z,43.6
2022-09-01T21:46:46.581Z,43.5
2022-09-01T21:51:47.088Z,43.5
2022-09-01T21:56:47.605Z,43.4
2022-09-01T22:01:48.237Z,43.4
2022-09-01T22:06:48.863Z,43.4
2022-09-01T22:11:49.352Z,43.4
2022-09-01T22:16:50.016Z,43.4
2022-09-01T22:21:50.598Z,43.3
2022-09-01T22:26:51.131Z,43.3
2022-09-01T22:31:51.630Z,43.3
2022-09-01T22:36:52.372Z,43.2
2022-09-01T22:41:52.886Z,43.2
2022-09-01T22:46:54.251Z,43.1
2022-09-01T22:51:54.752Z,43.1
2022-09-01T22:56:56.334Z,43.1
2022-09-01T23:02:00.099Z,43
2022-09-01T23:07:00.735Z,43
2022-09-01T23:12:01.262Z,42.9
2022-09-01T23:17:01.815Z,42.9
2022-09-01T23:22:02.316Z,42.9
2022-09-01T23:27:02.825Z,42.8
2022-09-01T23:32:03.416Z,42.8
2022-09-01T23:37:03.954Z,42.7
2022-09-01T23:42:04.460Z,42.7
2022-09-01T23:47:04.934Z,42.7
2022-09-01T23:52:05.417Z,42.7
2022-09-01T23:57:05.906Z,42.6
